This is the latest recevied weather packets stored in our database for station/object S51FO-6. If no packets are shown the sender has not sent any weather packets the latest 10 day(s).
| Time | Temp. | Humidity | Pressure | Rain* | Wind** | Luminosity | Snow |
|---|---|---|---|---|---|---|---|
| 1777870793 | -5° C | 82% | - | 0 mm | - | - | - |
| 1777869589 | -5.56° C | 82% | - | 0 mm | - | - | - |
| 1777843788 | -4.44° C | 81% | - | 0 mm | - | - | - |
| 1777828184 | 11.11° C | 50% | - | 0 mm | - | - | - |
| 1777823984 | 16.67° C | 28% | - | 0 mm | - | - | - |
| 1777820384 | 17.78° C | 29% | - | 0 mm | - | - | - |
| 1777809584 | 18.33° C | 24% | - | 0 mm | - | - | - |
| 1777804784 | 17.22° C | 26% | - | 0 mm | - | - | - |
| 1777803585 | 17.22° C | 30% | - | 0 mm | - | - | - |
| 1777802984 | 17.78° C | 26% | - | 0 mm | - | - | - |
| 1777802385 | 18.33° C | 27% | - | 0 mm | - | - | - |
| 1777801184 | 17.22° C | 28% | - | 0 mm | - | - | - |
| 1777800584 | 17.22° C | 27% | - | 0 mm | - | - | - |
| 1777799984 | 17.22° C | 29% | - | 0 mm | - | - | - |
| 1777799384 | 17.78° C | 27% | - | 0 mm | - | - | - |
| 1777798784 | 17.22° C | 26% | - | 0 mm | - | - | - |
| 1777797584 | 17.22° C | 26% | - | 0 mm | - | - | - |
| 1777796984 | 16.67° C | 26% | - | 0 mm | - | - | - |
| 1777796384 | 16.11° C | 28% | - | 0 mm | - | - | - |
| 1777795784 | 16.11° C | 27% | - | 0 mm | - | - | - |
| 1777795184 | 15.56° C | 31% | - | 0 mm | - | - | - |
| 1777794584 | 15.56° C | 32% | - | 0 mm | - | - | - |
| 1777793984 | 15° C | 33% | - | 0 mm | - | - | - |
| 1777792784 | 13.89° C | 41% | - | 0 mm | - | - | - |
| 1777792184 | 12.22° C | 43% | - | 0 mm | - | - | - |
* Rain latest hour (hover to see other rain measurements)
** Current wind speed in m/s (hover to see current wind gust speed)